Airfield :
LOGIN :

Register | Disclaimer

   EN    FR    IT 

 










Legend :    VFR   Marginal VFR   IFR   Intensive IFR   Very Intensive IFR
Visi :
Ceiling :
>= 8 km
>= 3000ft
5 to 8 km
1000 to 3000 ft
1500m to 5 km
500 to 1000 ft
800 to 1500m
200 to 500 ft
< 800m
< 200 ft
Symbols :   Thunderstorms  Fog  Heavy snow  Heavy precipitations  Wind > 20 kt
SIGMETs :     Misc.  Thunderstorms  Icing  Turbulence  Mountain Waves  Volcanic Ashes






- Airport Elevation : 154 ft
- IATA code : SZZ


EPSC - Szczecin Goleniow

CURRENT METAR :
  • 150530Z 35006KT 320V030 CAVOK 03/M01 Q1027

EXPIRED METARs :
  • 150500Z 35006KT CAVOK 02/M01 Q1027
  • 150430Z 34005KT CAVOK 02/M00 Q1027
  • 150400Z 34004KT CAVOK 02/M00 Q1026
  • 150330Z 35004KT CAVOK 02/M00 Q1026
  • 150300Z 34003KT CAVOK 01/M01 Q1026

TAF TAF EPSC
Valid from the 15 at 00:00 until the 16 at 00:00 UTC


142330Z 1500/1524 35003KT CAVOK
BECMG 1506/1509 36012KT
TEMPO 1512/1524 36015G26KT
BECMG 1516/1519 -RA BKN012
PROB40
TEMPO 1518/1524 4000 RA RASN BKN008



MET'MAP, your aeronautical weather chart ! - Copyright ORBIFLY December 2007 - Disclaimer

ORBIFLY MET'MAP TEAM :

Programming & Development : Alexandra Zaïnal
Concept & original design : Baudouin d'Aumeries
Assistance for programming : Marc-Olivier Méhu
Technical & hardware support : Manuel Goepfert

Contact : metmap@orbifly.com




SOURCES & CREDITS :

   NOAA